sensor_id;sensor_type;location;lat;lon;timestamp;P1;durP1;ratioP1;P2;durP2;ratioP2
52158;SDS011;38145;53.182;6.284;2022-07-10T00:01:13;6.95;;;1.75;;
52158;SDS011;38145;53.182;6.284;2022-07-10T00:03:40;8.52;;;2.05;;
52158;SDS011;38145;53.182;6.284;2022-07-10T00:06:09;13.52;;;1.75;;
52158;SDS011;38145;53.182;6.284;2022-07-10T00:08:36;9.23;;;1.48;;
52158;SDS011;38145;53.182;6.284;2022-07-10T00:11:03;8.23;;;1.42;;
52158;SDS011;38145;53.182;6.284;2022-07-10T00:13:30;6.40;;;1.95;;
52158;SDS011;38145;53.182;6.284;2022-07-10T00:16:00;8.80;;;1.60;;
52158;SDS011;38145;53.182;6.284;2022-07-10T00:18:30;10.18;;;1.77;;
52158;SDS011;38145;53.182;6.284;2022-07-10T00:20:57;9.07;;;1.67;;
52158;SDS011;38145;53.182;6.284;2022-07-10T00:23:24;10.93;;;2.10;;
52158;SDS011;38145;53.182;6.284;2022-07-10T00:25:51;8.95;;;1.60;;
52158;SDS011;38145;53.182;6.284;2022-07-10T00:28:18;7.45;;;1.92;;
52158;SDS011;38145;53.182;6.284;2022-07-10T00:30:46;4.85;;;1.33;;
52158;SDS011;38145;53.182;6.284;2022-07-10T00:35:38;7.82;;;2.42;;
52158;SDS011;38145;53.182;6.284;2022-07-10T00:38:05;9.63;;;1.45;;
52158;SDS011;38145;53.182;6.284;2022-07-10T00:40:32;8.13;;;2.53;;
52158;SDS011;38145;53.182;6.284;2022-07-10T00:42:59;14.00;;;1.67;;
52158;SDS011;38145;53.182;6.284;2022-07-10T00:45:25;10.18;;;1.63;;
52158;SDS011;38145;53.182;6.284;2022-07-10T00:47:52;8.05;;;1.90;;
52158;SDS011;38145;53.182;6.284;2022-07-10T00:50:19;10.43;;;1.95;;
52158;SDS011;38145;53.182;6.284;2022-07-10T00:52:46;7.95;;;1.77;;
52158;SDS011;38145;53.182;6.284;2022-07-10T00:55:12;8.38;;;1.80;;
52158;SDS011;38145;53.182;6.284;2022-07-10T00:57:40;17.15;;;3.42;;
52158;SDS011;38145;53.182;6.284;2022-07-10T01:00:09;10.52;;;1.63;;
52158;SDS011;38145;53.182;6.284;2022-07-10T01:02:43;9.02;;;1.80;;
52158;SDS011;38145;53.182;6.284;2022-07-10T01:05:11;11.02;;;1.38;;
52158;SDS011;38145;53.182;6.284;2022-07-10T01:07:39;9.63;;;2.30;;
52158;SDS011;38145;53.182;6.284;2022-07-10T01:10:07;7.60;;;1.48;;
52158;SDS011;38145;53.182;6.284;2022-07-10T01:12:35;6.95;;;1.40;;
52158;SDS011;38145;53.182;6.284;2022-07-10T01:15:04;6.00;;;1.40;;
52158;SDS011;38145;53.182;6.284;2022-07-10T01:17:30;6.10;;;1.00;;
52158;SDS011;38145;53.182;6.284;2022-07-10T01:20:05;7.32;;;1.58;;
52158;SDS011;38145;53.182;6.284;2022-07-10T01:22:33;8.60;;;1.42;;
52158;SDS011;38145;53.182;6.284;2022-07-10T01:25:02;6.53;;;1.30;;
52158;SDS011;38145;53.182;6.284;2022-07-10T01:27:31;4.47;;;1.10;;
52158;SDS011;38145;53.182;6.284;2022-07-10T01:29:58;7.57;;;1.45;;
52158;SDS011;38145;53.182;6.284;2022-07-10T01:32:25;6.63;;;1.42;;
52158;SDS011;38145;53.182;6.284;2022-07-10T01:34:51;8.90;;;1.60;;
52158;SDS011;38145;53.182;6.284;2022-07-10T01:37:19;7.60;;;1.77;;
52158;SDS011;38145;53.182;6.284;2022-07-10T01:39:46;6.90;;;1.40;;
52158;SDS011;38145;53.182;6.284;2022-07-10T01:42:13;6.25;;;1.27;;
52158;SDS011;38145;53.182;6.284;2022-07-10T01:44:40;11.63;;;1.83;;
52158;SDS011;38145;53.182;6.284;2022-07-10T01:47:06;7.38;;;1.25;;
52158;SDS011;38145;53.182;6.284;2022-07-10T01:49:34;7.80;;;1.52;;
52158;SDS011;38145;53.182;6.284;2022-07-10T01:52:02;5.10;;;1.10;;
52158;SDS011;38145;53.182;6.284;2022-07-10T01:54:31;6.75;;;1.52;;
52158;SDS011;38145;53.182;6.284;2022-07-10T01:56:58;6.45;;;1.15;;
52158;SDS011;38145;53.182;6.284;2022-07-10T01:59:24;7.57;;;1.13;;
52158;SDS011;38145;53.182;6.284;2022-07-10T02:01:53;8.18;;;1.58;;
52158;SDS011;38145;53.182;6.284;2022-07-10T02:04:20;7.22;;;1.27;;
52158;SDS011;38145;53.182;6.284;2022-07-10T02:07:05;8.48;;;1.10;;
52158;SDS011;38145;53.182;6.284;2022-07-10T02:09:34;6.63;;;1.20;;
52158;SDS011;38145;53.182;6.284;2022-07-10T02:12:02;8.23;;;1.63;;
52158;SDS011;38145;53.182;6.284;2022-07-10T02:14:28;7.97;;;1.13;;
52158;SDS011;38145;53.182;6.284;2022-07-10T02:16:55;8.43;;;1.15;;
52158;SDS011;38145;53.182;6.284;2022-07-10T02:19:21;7.53;;;1.23;;
52158;SDS011;38145;53.182;6.284;2022-07-10T02:21:47;6.97;;;1.80;;
52158;SDS011;38145;53.182;6.284;2022-07-10T02:26:42;6.95;;;2.13;;
52158;SDS011;38145;53.182;6.284;2022-07-10T02:29:10;8.60;;;1.38;;
52158;SDS011;38145;53.182;6.284;2022-07-10T02:31:37;6.50;;;1.20;;
52158;SDS011;38145;53.182;6.284;2022-07-10T02:34:07;5.32;;;1.20;;
52158;SDS011;38145;53.182;6.284;2022-07-10T02:36:35;12.38;;;1.75;;
52158;SDS011;38145;53.182;6.284;2022-07-10T02:39:02;6.80;;;1.03;;
52158;SDS011;38145;53.182;6.284;2022-07-10T02:41:29;4.83;;;1.47;;
52158;SDS011;38145;53.182;6.284;2022-07-10T02:43:55;8.80;;;1.27;;
52158;SDS011;38145;53.182;6.284;2022-07-10T02:46:22;8.50;;;1.48;;
52158;SDS011;38145;53.182;6.284;2022-07-10T02:48:49;8.68;;;1.55;;
52158;SDS011;38145;53.182;6.284;2022-07-10T02:51:16;9.05;;;1.48;;
52158;SDS011;38145;53.182;6.284;2022-07-10T02:53:45;8.80;;;1.42;;
52158;SDS011;38145;53.182;6.284;2022-07-10T02:56:11;8.30;;;1.48;;
52158;SDS011;38145;53.182;6.284;2022-07-10T02:58:38;6.88;;;1.35;;
52158;SDS011;38145;53.182;6.284;2022-07-10T03:01:05;10.20;;;1.10;;
52158;SDS011;38145;53.182;6.284;2022-07-10T03:03:32;6.03;;;1.43;;
52158;SDS011;38145;53.182;6.284;2022-07-10T03:05:58;7.80;;;1.42;;
52158;SDS011;38145;53.182;6.284;2022-07-10T03:08:25;6.70;;;1.17;;
52158;SDS011;38145;53.182;6.284;2022-07-10T03:10:52;5.82;;;1.20;;
52158;SDS011;38145;53.182;6.284;2022-07-10T03:13:20;7.90;;;1.55;;
52158;SDS011;38145;53.182;6.284;2022-07-10T03:15:46;10.25;;;1.70;;
52158;SDS011;38145;53.182;6.284;2022-07-10T03:18:15;9.00;;;1.85;;
52158;SDS011;38145;53.182;6.284;2022-07-10T03:20:43;12.40;;;2.03;;
52158;SDS011;38145;53.182;6.284;2022-07-10T03:23:10;7.60;;;1.60;;
52158;SDS011;38145;53.182;6.284;2022-07-10T03:25:37;9.93;;;1.30;;
52158;SDS011;38145;53.182;6.284;2022-07-10T03:28:05;13.48;;;1.50;;
52158;SDS011;38145;53.182;6.284;2022-07-10T03:30:33;7.95;;;1.42;;
52158;SDS011;38145;53.182;6.284;2022-07-10T03:32:59;8.68;;;1.52;;
52158;SDS011;38145;53.182;6.284;2022-07-10T03:35:29;8.93;;;1.60;;
52158;SDS011;38145;53.182;6.284;2022-07-10T03:37:57;8.18;;;1.70;;
52158;SDS011;38145;53.182;6.284;2022-07-10T03:40:24;13.98;;;1.98;;
52158;SDS011;38145;53.182;6.284;2022-07-10T03:42:52;7.97;;;2.80;;
52158;SDS011;38145;53.182;6.284;2022-07-10T03:45:19;10.07;;;1.83;;
52158;SDS011;38145;53.182;6.284;2022-07-10T03:47:46;9.52;;;1.52;;
52158;SDS011;38145;53.182;6.284;2022-07-10T03:50:15;8.90;;;1.60;;
52158;SDS011;38145;53.182;6.284;2022-07-10T03:52:42;14.45;;;3.22;;
52158;SDS011;38145;53.182;6.284;2022-07-10T03:55:11;6.28;;;1.73;;
52158;SDS011;38145;53.182;6.284;2022-07-10T03:57:39;7.82;;;1.90;;
52158;SDS011;38145;53.182;6.284;2022-07-10T04:00:21;7.97;;;2.25;;
52158;SDS011;38145;53.182;6.284;2022-07-10T04:03:04;10.57;;;1.70;;
52158;SDS011;38145;53.182;6.284;2022-07-10T04:05:32;12.40;;;2.20;;
52158;SDS011;38145;53.182;6.284;2022-07-10T04:07:59;12.45;;;1.95;;
52158;SDS011;38145;53.182;6.284;2022-07-10T04:10:26;6.93;;;1.60;;
52158;SDS011;38145;53.182;6.284;2022-07-10T04:12:55;11.43;;;2.10;;
52158;SDS011;38145;53.182;6.284;2022-07-10T04:15:23;5.88;;;1.85;;
52158;SDS011;38145;53.182;6.284;2022-07-10T04:17:51;13.40;;;3.13;;
52158;SDS011;38145;53.182;6.284;2022-07-10T04:20:19;9.55;;;2.15;;
52158;SDS011;38145;53.182;6.284;2022-07-10T04:25:13;10.30;;;2.30;;
52158;SDS011;38145;53.182;6.284;2022-07-10T04:27:39;9.68;;;2.05;;
52158;SDS011;38145;53.182;6.284;2022-07-10T04:30:08;6.18;;;2.50;;
52158;SDS011;38145;53.182;6.284;2022-07-10T04:32:38;12.77;;;2.22;;
52158;SDS011;38145;53.182;6.284;2022-07-10T04:35:08;10.82;;;2.40;;
52158;SDS011;38145;53.182;6.284;2022-07-10T04:37:40;14.02;;;2.72;;
52158;SDS011;38145;53.182;6.284;2022-07-10T04:40:08;6.43;;;1.85;;
52158;SDS011;38145;53.182;6.284;2022-07-10T04:42:37;10.43;;;1.98;;
52158;SDS011;38145;53.182;6.284;2022-07-10T04:45:04;14.20;;;2.67;;
52158;SDS011;38145;53.182;6.284;2022-07-10T04:47:31;8.73;;;2.15;;
52158;SDS011;38145;53.182;6.284;2022-07-10T04:49:58;13.70;;;2.78;;
52158;SDS011;38145;53.182;6.284;2022-07-10T04:52:27;10.57;;;1.83;;
52158;SDS011;38145;53.182;6.284;2022-07-10T04:54:54;9.52;;;2.28;;
52158;SDS011;38145;53.182;6.284;2022-07-10T04:57:21;6.43;;;1.95;;
52158;SDS011;38145;53.182;6.284;2022-07-10T04:59:48;14.43;;;2.08;;
52158;SDS011;38145;53.182;6.284;2022-07-10T05:02:23;9.50;;;2.25;;
52158;SDS011;38145;53.182;6.284;2022-07-10T05:04:49;11.60;;;2.35;;
52158;SDS011;38145;53.182;6.284;2022-07-10T05:07:15;8.57;;;2.17;;
52158;SDS011;38145;53.182;6.284;2022-07-10T05:09:42;15.38;;;2.47;;
52158;SDS011;38145;53.182;6.284;2022-07-10T05:12:10;9.10;;;2.25;;
52158;SDS011;38145;53.182;6.284;2022-07-10T05:14:36;12.57;;;2.17;;
52158;SDS011;38145;53.182;6.284;2022-07-10T05:17:03;10.85;;;2.40;;
52158;SDS011;38145;53.182;6.284;2022-07-10T05:19:32;9.10;;;1.90;;
52158;SDS011;38145;53.182;6.284;2022-07-10T05:22:00;11.70;;;2.00;;
52158;SDS011;38145;53.182;6.284;2022-07-10T05:24:28;9.05;;;1.67;;
52158;SDS011;38145;53.182;6.284;2022-07-10T05:26:56;9.57;;;2.30;;
52158;SDS011;38145;53.182;6.284;2022-07-10T05:29:24;10.77;;;2.13;;
52158;SDS011;38145;53.182;6.284;2022-07-10T05:31:51;7.35;;;2.25;;
52158;SDS011;38145;53.182;6.284;2022-07-10T05:34:17;10.70;;;2.10;;
52158;SDS011;38145;53.182;6.284;2022-07-10T05:36:45;13.43;;;2.35;;
52158;SDS011;38145;53.182;6.284;2022-07-10T05:39:11;8.48;;;2.40;;
52158;SDS011;38145;53.182;6.284;2022-07-10T05:41:42;9.40;;;1.58;;
52158;SDS011;38145;53.182;6.284;2022-07-10T05:44:10;9.82;;;1.92;;
52158;SDS011;38145;53.182;6.284;2022-07-10T05:46:39;8.88;;;1.95;;
52158;SDS011;38145;53.182;6.284;2022-07-10T05:49:05;8.20;;;1.50;;
52158;SDS011;38145;53.182;6.284;2022-07-10T05:51:33;6.95;;;1.25;;
52158;SDS011;38145;53.182;6.284;2022-07-10T05:53:59;8.70;;;1.80;;
52158;SDS011;38145;53.182;6.284;2022-07-10T05:56:26;9.90;;;3.13;;
52158;SDS011;38145;53.182;6.284;2022-07-10T05:58:52;6.18;;;1.48;;
52158;SDS011;38145;53.182;6.284;2022-07-10T06:01:23;6.75;;;2.72;;
52158;SDS011;38145;53.182;6.284;2022-07-10T06:03:51;7.70;;;2.40;;
52158;SDS011;38145;53.182;6.284;2022-07-10T06:06:18;9.57;;;1.73;;
52158;SDS011;38145;53.182;6.284;2022-07-10T06:08:45;8.35;;;1.60;;
52158;SDS011;38145;53.182;6.284;2022-07-10T06:11:14;8.77;;;1.80;;
52158;SDS011;38145;53.182;6.284;2022-07-10T06:13:41;6.30;;;1.30;;
52158;SDS011;38145;53.182;6.284;2022-07-10T06:16:08;5.63;;;1.52;;
52158;SDS011;38145;53.182;6.284;2022-07-10T06:21:02;6.47;;;1.75;;
52158;SDS011;38145;53.182;6.284;2022-07-10T06:23:28;12.00;;;1.73;;
52158;SDS011;38145;53.182;6.284;2022-07-10T06:25:55;5.55;;;1.30;;
52158;SDS011;38145;53.182;6.284;2022-07-10T06:28:22;5.70;;;1.73;;
52158;SDS011;38145;53.182;6.284;2022-07-10T06:30:48;6.03;;;1.70;;
52158;SDS011;38145;53.182;6.284;2022-07-10T06:33:14;5.88;;;1.35;;
52158;SDS011;38145;53.182;6.284;2022-07-10T06:35:40;9.18;;;2.10;;
52158;SDS011;38145;53.182;6.284;2022-07-10T06:38:06;6.63;;;1.80;;
52158;SDS011;38145;53.182;6.284;2022-07-10T06:40:35;6.50;;;1.67;;
52158;SDS011;38145;53.182;6.284;2022-07-10T06:43:02;3.95;;;1.00;;
52158;SDS011;38145;53.182;6.284;2022-07-10T06:45:29;8.32;;;1.77;;
52158;SDS011;38145;53.182;6.284;2022-07-10T06:47:55;8.30;;;2.10;;
52158;SDS011;38145;53.182;6.284;2022-07-10T06:50:23;7.32;;;1.52;;
52158;SDS011;38145;53.182;6.284;2022-07-10T06:52:52;5.57;;;1.65;;
52158;SDS011;38145;53.182;6.284;2022-07-10T06:55:19;7.93;;;2.15;;
52158;SDS011;38145;53.182;6.284;2022-07-10T06:57:46;8.13;;;1.65;;
52158;SDS011;38145;53.182;6.284;2022-07-10T07:00:14;3.75;;;1.08;;
52158;SDS011;38145;53.182;6.284;2022-07-10T07:02:41;6.82;;;1.30;;
52158;SDS011;38145;53.182;6.284;2022-07-10T07:05:07;3.50;;;0.90;;
52158;SDS011;38145;53.182;6.284;2022-07-10T07:07:35;5.25;;;1.35;;
52158;SDS011;38145;53.182;6.284;2022-07-10T07:10:02;7.38;;;1.63;;
52158;SDS011;38145;53.182;6.284;2022-07-10T07:12:28;4.63;;;1.33;;
52158;SDS011;38145;53.182;6.284;2022-07-10T07:14:55;9.30;;;1.45;;
52158;SDS011;38145;53.182;6.284;2022-07-10T07:17:21;5.10;;;1.00;;
52158;SDS011;38145;53.182;6.284;2022-07-10T07:19:48;3.58;;;1.42;;
52158;SDS011;38145;53.182;6.284;2022-07-10T07:22:33;6.15;;;1.63;;
52158;SDS011;38145;53.182;6.284;2022-07-10T07:25:17;6.93;;;1.90;;
52158;SDS011;38145;53.182;6.284;2022-07-10T07:27:43;9.88;;;2.35;;
52158;SDS011;38145;53.182;6.284;2022-07-10T07:30:10;4.10;;;1.33;;
52158;SDS011;38145;53.182;6.284;2022-07-10T07:32:40;7.72;;;1.50;;
52158;SDS011;38145;53.182;6.284;2022-07-10T07:35:06;6.97;;;1.40;;
52158;SDS011;38145;53.182;6.284;2022-07-10T07:37:38;6.00;;;1.73;;
52158;SDS011;38145;53.182;6.284;2022-07-10T07:40:05;6.60;;;1.73;;
52158;SDS011;38145;53.182;6.284;2022-07-10T07:42:33;6.72;;;1.42;;
52158;SDS011;38145;53.182;6.284;2022-07-10T07:44:59;5.90;;;1.23;;
52158;SDS011;38145;53.182;6.284;2022-07-10T07:47:25;11.00;;;1.90;;
52158;SDS011;38145;53.182;6.284;2022-07-10T07:49:51;4.47;;;1.40;;
52158;SDS011;38145;53.182;6.284;2022-07-10T07:52:17;5.50;;;1.30;;
52158;SDS011;38145;53.182;6.284;2022-07-10T07:54:43;5.15;;;1.77;;
52158;SDS011;38145;53.182;6.284;2022-07-10T07:57:08;7.55;;;1.85;;
52158;SDS011;38145;53.182;6.284;2022-07-10T07:59:34;9.90;;;1.83;;
52158;SDS011;38145;53.182;6.284;2022-07-10T08:02:01;9.70;;;2.00;;
52158;SDS011;38145;53.182;6.284;2022-07-10T08:04:27;8.45;;;1.83;;
52158;SDS011;38145;53.182;6.284;2022-07-10T08:06:53;8.25;;;2.47;;
52158;SDS011;38145;53.182;6.284;2022-07-10T08:09:19;4.55;;;1.63;;
52158;SDS011;38145;53.182;6.284;2022-07-10T08:11:46;7.68;;;2.05;;
52158;SDS011;38145;53.182;6.284;2022-07-10T08:14:13;10.50;;;2.63;;
52158;SDS011;38145;53.182;6.284;2022-07-10T08:16:40;10.70;;;2.67;;
52158;SDS011;38145;53.182;6.284;2022-07-10T08:19:08;8.25;;;2.13;;
52158;SDS011;38145;53.182;6.284;2022-07-10T08:21:34;8.20;;;2.28;;
52158;SDS011;38145;53.182;6.284;2022-07-10T08:24:00;6.75;;;1.90;;
52158;SDS011;38145;53.182;6.284;2022-07-10T08:26:27;8.63;;;3.03;;
52158;SDS011;38145;53.182;6.284;2022-07-10T08:28:53;8.00;;;2.55;;
52158;SDS011;38145;53.182;6.284;2022-07-10T08:31:19;7.57;;;2.65;;
52158;SDS011;38145;53.182;6.284;2022-07-10T08:33:47;10.68;;;3.03;;
52158;SDS011;38145;53.182;6.284;2022-07-10T08:36:14;9.13;;;2.20;;
52158;SDS011;38145;53.182;6.284;2022-07-10T08:38:41;7.47;;;2.55;;
52158;SDS011;38145;53.182;6.284;2022-07-10T08:41:07;10.27;;;4.07;;
52158;SDS011;38145;53.182;6.284;2022-07-10T08:43:38;7.40;;;2.28;;
52158;SDS011;38145;53.182;6.284;2022-07-10T08:46:04;10.52;;;2.90;;
52158;SDS011;38145;53.182;6.284;2022-07-10T08:48:32;8.35;;;3.05;;
52158;SDS011;38145;53.182;6.284;2022-07-10T08:51:01;6.20;;;2.60;;
52158;SDS011;38145;53.182;6.284;2022-07-10T08:53:32;8.10;;;2.53;;
52158;SDS011;38145;53.182;6.284;2022-07-10T08:56:00;7.80;;;2.63;;
52158;SDS011;38145;53.182;6.284;2022-07-10T08:58:27;7.18;;;2.35;;
52158;SDS011;38145;53.182;6.284;2022-07-10T09:00:53;8.25;;;2.50;;
52158;SDS011;38145;53.182;6.284;2022-07-10T09:03:21;10.40;;;2.53;;
52158;SDS011;38145;53.182;6.284;2022-07-10T09:05:47;9.52;;;3.35;;
52158;SDS011;38145;53.182;6.284;2022-07-10T09:08:24;9.02;;;3.35;;
52158;SDS011;38145;53.182;6.284;2022-07-10T09:11:18;9.77;;;3.33;;
52158;SDS011;38145;53.182;6.284;2022-07-10T09:13:49;5.40;;;2.33;;
52158;SDS011;38145;53.182;6.284;2022-07-10T09:16:20;10.40;;;2.90;;
52158;SDS011;38145;53.182;6.284;2022-07-10T09:18:49;10.15;;;3.08;;
52158;SDS011;38145;53.182;6.284;2022-07-10T09:21:15;7.32;;;2.58;;
52158;SDS011;38145;53.182;6.284;2022-07-10T09:23:42;8.25;;;2.60;;
52158;SDS011;38145;53.182;6.284;2022-07-10T09:26:10;8.85;;;2.42;;
52158;SDS011;38145;53.182;6.284;2022-07-10T09:28:37;5.45;;;2.10;;
52158;SDS011;38145;53.182;6.284;2022-07-10T09:31:04;8.45;;;2.85;;
52158;SDS011;38145;53.182;6.284;2022-07-10T09:33:31;5.57;;;2.17;;
52158;SDS011;38145;53.182;6.284;2022-07-10T09:36:07;7.00;;;2.50;;
52158;SDS011;38145;53.182;6.284;2022-07-10T09:41:19;5.32;;;2.50;;
52158;SDS011;38145;53.182;6.284;2022-07-10T09:46:20;5.22;;;2.03;;
52158;SDS011;38145;53.182;6.284;2022-07-10T09:48:48;7.32;;;2.35;;
52158;SDS011;38145;53.182;6.284;2022-07-10T09:51:25;7.90;;;2.30;;
52158;SDS011;38145;53.182;6.284;2022-07-10T09:53:57;8.65;;;2.83;;
52158;SDS011;38145;53.182;6.284;2022-07-10T09:56:26;9.55;;;2.85;;
52158;SDS011;38145;53.182;6.284;2022-07-10T09:58:58;7.93;;;2.58;;
52158;SDS011;38145;53.182;6.284;2022-07-10T10:01:27;13.25;;;2.72;;
52158;SDS011;38145;53.182;6.284;2022-07-10T10:03:56;8.65;;;2.83;;
52158;SDS011;38145;53.182;6.284;2022-07-10T10:06:26;7.85;;;3.03;;
52158;SDS011;38145;53.182;6.284;2022-07-10T10:08:59;8.77;;;3.10;;
52158;SDS011;38145;53.182;6.284;2022-07-10T10:11:31;9.00;;;3.60;;
52158;SDS011;38145;53.182;6.284;2022-07-10T10:14:00;7.63;;;2.67;;
52158;SDS011;38145;53.182;6.284;2022-07-10T10:16:27;6.07;;;2.60;;
52158;SDS011;38145;53.182;6.284;2022-07-10T10:18:55;5.13;;;2.13;;
52158;SDS011;38145;53.182;6.284;2022-07-10T10:21:40;8.15;;;2.30;;
52158;SDS011;38145;53.182;6.284;2022-07-10T10:24:07;6.05;;;2.20;;
52158;SDS011;38145;53.182;6.284;2022-07-10T10:26:33;8.02;;;2.53;;
52158;SDS011;38145;53.182;6.284;2022-07-10T10:29:01;6.97;;;2.30;;
52158;SDS011;38145;53.182;6.284;2022-07-10T10:31:30;7.22;;;2.33;;
52158;SDS011;38145;53.182;6.284;2022-07-10T10:33:58;10.65;;;2.50;;
52158;SDS011;38145;53.182;6.284;2022-07-10T10:39:11;9.77;;;2.72;;
52158;SDS011;38145;53.182;6.284;2022-07-10T10:41:40;4.80;;;1.67;;
52158;SDS011;38145;53.182;6.284;2022-07-10T10:49:24;10.75;;;2.85;;
52158;SDS011;38145;53.182;6.284;2022-07-10T10:54:25;9.05;;;2.05;;
52158;SDS011;38145;53.182;6.284;2022-07-10T10:57:11;7.45;;;1.55;;
52158;SDS011;38145;53.182;6.284;2022-07-10T10:59:49;6.30;;;2.03;;
52158;SDS011;38145;53.182;6.284;2022-07-10T11:02:21;6.85;;;1.70;;
52158;SDS011;38145;53.182;6.284;2022-07-10T11:10:26;3.65;;;1.45;;
52158;SDS011;38145;53.182;6.284;2022-07-10T11:12:56;4.00;;;1.55;;
52158;SDS011;38145;53.182;6.284;2022-07-10T11:15:26;4.90;;;2.20;;
52158;SDS011;38145;53.182;6.284;2022-07-10T11:17:56;6.75;;;1.80;;
52158;SDS011;38145;53.182;6.284;2022-07-10T11:20:23;3.47;;;1.45;;
52158;SDS011;38145;53.182;6.284;2022-07-10T11:23:01;6.65;;;1.92;;
52158;SDS011;38145;53.182;6.284;2022-07-10T11:25:48;4.22;;;1.92;;
52158;SDS011;38145;53.182;6.284;2022-07-10T11:28:34;4.55;;;1.42;;
52158;SDS011;38145;53.182;6.284;2022-07-10T11:31:07;7.05;;;2.10;;
52158;SDS011;38145;53.182;6.284;2022-07-10T11:33:41;5.13;;;2.17;;
52158;SDS011;38145;53.182;6.284;2022-07-10T11:36:10;7.28;;;2.03;;
52158;SDS011;38145;53.182;6.284;2022-07-10T11:38:39;6.32;;;2.17;;
52158;SDS011;38145;53.182;6.284;2022-07-10T11:41:14;7.25;;;2.38;;
52158;SDS011;38145;53.182;6.284;2022-07-10T11:46:24;6.32;;;2.75;;
52158;SDS011;38145;53.182;6.284;2022-07-10T11:48:53;9.50;;;2.70;;
52158;SDS011;38145;53.182;6.284;2022-07-10T11:51:23;8.63;;;2.42;;
52158;SDS011;38145;53.182;6.284;2022-07-10T11:53:52;9.35;;;2.47;;
52158;SDS011;38145;53.182;6.284;2022-07-10T11:58:54;7.97;;;2.45;;
52158;SDS011;38145;53.182;6.284;2022-07-10T12:01:22;9.93;;;2.90;;
52158;SDS011;38145;53.182;6.284;2022-07-10T12:03:56;7.10;;;3.10;;
52158;SDS011;38145;53.182;6.284;2022-07-10T12:06:25;10.15;;;2.80;;
52158;SDS011;38145;53.182;6.284;2022-07-10T12:09:01;7.75;;;2.80;;
52158;SDS011;38145;53.182;6.284;2022-07-10T12:11:30;8.85;;;2.75;;
52158;SDS011;38145;53.182;6.284;2022-07-10T12:14:08;8.65;;;3.10;;
52158;SDS011;38145;53.182;6.284;2022-07-10T12:16:35;10.18;;;2.40;;
52158;SDS011;38145;53.182;6.284;2022-07-10T12:19:04;6.88;;;2.78;;
52158;SDS011;38145;53.182;6.284;2022-07-10T12:21:32;8.75;;;2.30;;
52158;SDS011;38145;53.182;6.284;2022-07-10T12:23:59;6.00;;;2.53;;
52158;SDS011;38145;53.182;6.284;2022-07-10T12:26:32;7.70;;;2.33;;
52158;SDS011;38145;53.182;6.284;2022-07-10T12:29:00;8.07;;;2.35;;
52158;SDS011;38145;53.182;6.284;2022-07-10T12:31:28;5.13;;;2.10;;
52158;SDS011;38145;53.182;6.284;2022-07-10T12:33:57;7.05;;;1.98;;
52158;SDS011;38145;53.182;6.284;2022-07-10T12:36:48;4.35;;;1.27;;
52158;SDS011;38145;53.182;6.284;2022-07-10T12:39:20;5.07;;;1.75;;
52158;SDS011;38145;53.182;6.284;2022-07-10T12:44:32;5.45;;;1.92;;
52158;SDS011;38145;53.182;6.284;2022-07-10T12:47:00;8.02;;;2.40;;
52158;SDS011;38145;53.182;6.284;2022-07-10T12:49:28;7.57;;;2.42;;
52158;SDS011;38145;53.182;6.284;2022-07-10T12:51:54;7.30;;;2.38;;
52158;SDS011;38145;53.182;6.284;2022-07-10T12:54:37;9.65;;;3.10;;
52158;SDS011;38145;53.182;6.284;2022-07-10T12:57:04;8.93;;;2.42;;
52158;SDS011;38145;53.182;6.284;2022-07-10T12:59:37;8.70;;;2.92;;
52158;SDS011;38145;53.182;6.284;2022-07-10T13:02:17;6.10;;;2.75;;
52158;SDS011;38145;53.182;6.284;2022-07-10T13:04:53;9.23;;;2.58;;
52158;SDS011;38145;53.182;6.284;2022-07-10T13:07:28;8.40;;;2.28;;
52158;SDS011;38145;53.182;6.284;2022-07-10T13:12:26;7.93;;;2.75;;
52158;SDS011;38145;53.182;6.284;2022-07-10T13:14:53;9.52;;;2.50;;
52158;SDS011;38145;53.182;6.284;2022-07-10T13:17:21;9.45;;;2.85;;
52158;SDS011;38145;53.182;6.284;2022-07-10T13:19:49;6.88;;;2.97;;
52158;SDS011;38145;53.182;6.284;2022-07-10T13:22:17;7.55;;;2.53;;
52158;SDS011;38145;53.182;6.284;2022-07-10T13:24:44;9.23;;;2.42;;
52158;SDS011;38145;53.182;6.284;2022-07-10T13:27:11;6.35;;;2.67;;
52158;SDS011;38145;53.182;6.284;2022-07-10T13:29:37;6.57;;;2.50;;
52158;SDS011;38145;53.182;6.284;2022-07-10T13:32:03;8.20;;;2.88;;
52158;SDS011;38145;53.182;6.284;2022-07-10T13:34:31;9.45;;;2.88;;
52158;SDS011;38145;53.182;6.284;2022-07-10T13:36:57;7.45;;;2.80;;
52158;SDS011;38145;53.182;6.284;2022-07-10T13:39:24;7.10;;;2.58;;
52158;SDS011;38145;53.182;6.284;2022-07-10T13:41:50;6.97;;;3.10;;
52158;SDS011;38145;53.182;6.284;2022-07-10T13:44:16;9.80;;;2.83;;
52158;SDS011;38145;53.182;6.284;2022-07-10T13:46:43;6.05;;;2.67;;
52158;SDS011;38145;53.182;6.284;2022-07-10T13:49:10;7.80;;;2.78;;
52158;SDS011;38145;53.182;6.284;2022-07-10T13:51:36;6.90;;;2.25;;
52158;SDS011;38145;53.182;6.284;2022-07-10T13:54:03;6.45;;;2.30;;
52158;SDS011;38145;53.182;6.284;2022-07-10T13:56:29;8.57;;;2.40;;
52158;SDS011;38145;53.182;6.284;2022-07-10T13:58:55;6.18;;;2.00;;
52158;SDS011;38145;53.182;6.284;2022-07-10T14:01:21;4.63;;;1.73;;
52158;SDS011;38145;53.182;6.284;2022-07-10T14:03:48;4.13;;;1.88;;
52158;SDS011;38145;53.182;6.284;2022-07-10T14:06:15;4.00;;;1.08;;
52158;SDS011;38145;53.182;6.284;2022-07-10T14:08:42;9.77;;;1.52;;
52158;SDS011;38145;53.182;6.284;2022-07-10T14:11:08;2.58;;;1.17;;
52158;SDS011;38145;53.182;6.284;2022-07-10T14:13:35;2.60;;;1.00;;
52158;SDS011;38145;53.182;6.284;2022-07-10T14:16:01;4.97;;;1.75;;
52158;SDS011;38145;53.182;6.284;2022-07-10T14:18:28;2.45;;;1.08;;
52158;SDS011;38145;53.182;6.284;2022-07-10T14:21:02;4.57;;;1.48;;
52158;SDS011;38145;53.182;6.284;2022-07-10T14:23:30;3.42;;;1.38;;
52158;SDS011;38145;53.182;6.284;2022-07-10T14:25:58;3.97;;;1.48;;
52158;SDS011;38145;53.182;6.284;2022-07-10T14:28:24;4.15;;;1.48;;
52158;SDS011;38145;53.182;6.284;2022-07-10T14:30:50;3.30;;;1.40;;
52158;SDS011;38145;53.182;6.284;2022-07-10T14:33:18;5.45;;;2.15;;
52158;SDS011;38145;53.182;6.284;2022-07-10T14:35:44;5.75;;;1.52;;
52158;SDS011;38145;53.182;6.284;2022-07-10T14:38:10;3.10;;;1.15;;
52158;SDS011;38145;53.182;6.284;2022-07-10T14:40:38;4.85;;;1.50;;
52158;SDS011;38145;53.182;6.284;2022-07-10T14:43:04;9.50;;;1.98;;
52158;SDS011;38145;53.182;6.284;2022-07-10T14:45:30;3.90;;;1.65;;
52158;SDS011;38145;53.182;6.284;2022-07-10T14:47:56;4.35;;;1.60;;
52158;SDS011;38145;53.182;6.284;2022-07-10T14:50:24;3.17;;;1.70;;
52158;SDS011;38145;53.182;6.284;2022-07-10T14:52:50;4.60;;;1.55;;
52158;SDS011;38145;53.182;6.284;2022-07-10T14:55:17;5.53;;;1.65;;
52158;SDS011;38145;53.182;6.284;2022-07-10T14:57:43;4.75;;;1.73;;
52158;SDS011;38145;53.182;6.284;2022-07-10T15:00:10;4.70;;;1.60;;
52158;SDS011;38145;53.182;6.284;2022-07-10T15:02:36;7.93;;;2.27;;
52158;SDS011;38145;53.182;6.284;2022-07-10T15:05:08;5.63;;;1.58;;
52158;SDS011;38145;53.182;6.284;2022-07-10T15:07:34;5.80;;;1.73;;
52158;SDS011;38145;53.182;6.284;2022-07-10T15:10:01;5.50;;;2.03;;
52158;SDS011;38145;53.182;6.284;2022-07-10T15:12:28;6.03;;;1.75;;
52158;SDS011;38145;53.182;6.284;2022-07-10T15:14:58;5.90;;;1.95;;
52158;SDS011;38145;53.182;6.284;2022-07-10T15:17:25;4.28;;;1.65;;
52158;SDS011;38145;53.182;6.284;2022-07-10T15:19:52;7.63;;;1.67;;
52158;SDS011;38145;53.182;6.284;2022-07-10T15:22:18;5.13;;;2.08;;
52158;SDS011;38145;53.182;6.284;2022-07-10T15:24:45;2.97;;;2.03;;
52158;SDS011;38145;53.182;6.284;2022-07-10T15:27:14;4.57;;;1.80;;
52158;SDS011;38145;53.182;6.284;2022-07-10T15:29:39;4.85;;;1.95;;
52158;SDS011;38145;53.182;6.284;2022-07-10T15:32:05;5.10;;;1.83;;
52158;SDS011;38145;53.182;6.284;2022-07-10T15:34:32;9.23;;;2.78;;